sensor_id;sensor_type;location;lat;lon;timestamp;temperature;humidity
64705;DHT22;51131;52.298;13.686;2023-06-26T00:00:04;21.80;79.30
64705;DHT22;51131;52.298;13.686;2023-06-26T00:02:31;21.80;79.50
64705;DHT22;51131;52.298;13.686;2023-06-26T00:04:59;21.90;79.60
64705;DHT22;51131;52.298;13.686;2023-06-26T00:07:29;21.90;79.80
64705;DHT22;51131;52.298;13.686;2023-06-26T00:09:57;21.90;80.00
64705;DHT22;51131;52.298;13.686;2023-06-26T00:12:25;21.70;79.90
64705;DHT22;51131;52.298;13.686;2023-06-26T00:14:51;21.70;79.70
64705;DHT22;51131;52.298;13.686;2023-06-26T00:17:18;21.70;79.80
64705;DHT22;51131;52.298;13.686;2023-06-26T00:19:45;21.70;79.70
64705;DHT22;51131;52.298;13.686;2023-06-26T00:22:12;21.70;79.70
64705;DHT22;51131;52.298;13.686;2023-06-26T00:24:38;21.70;79.90
64705;DHT22;51131;52.298;13.686;2023-06-26T00:27:05;21.80;79.90
64705;DHT22;51131;52.298;13.686;2023-06-26T00:29:32;21.70;79.80
64705;DHT22;51131;52.298;13.686;2023-06-26T00:31:59;21.60;79.50
64705;DHT22;51131;52.298;13.686;2023-06-26T00:34:25;22.00;80.00
64705;DHT22;51131;52.298;13.686;2023-06-26T00:36:52;21.60;79.40
64705;DHT22;51131;52.298;13.686;2023-06-26T00:39:19;21.90;79.80
64705;DHT22;51131;52.298;13.686;2023-06-26T00:41:45;21.80;79.70
64705;DHT22;51131;52.298;13.686;2023-06-26T00:44:12;21.60;79.40
64705;DHT22;51131;52.298;13.686;2023-06-26T00:46:39;21.60;79.50
64705;DHT22;51131;52.298;13.686;2023-06-26T00:49:05;21.60;79.40
64705;DHT22;51131;52.298;13.686;2023-06-26T00:51:32;21.60;79.40
64705;DHT22;51131;52.298;13.686;2023-06-26T00:53:59;21.60;79.40
64705;DHT22;51131;52.298;13.686;2023-06-26T00:56:26;21.60;79.40
64705;DHT22;51131;52.298;13.686;2023-06-26T00:58:54;21.60;79.30
64705;DHT22;51131;52.298;13.686;2023-06-26T01:01:20;21.60;79.40
64705;DHT22;51131;52.298;13.686;2023-06-26T01:03:48;21.70;79.40
64705;DHT22;51131;52.298;13.686;2023-06-26T01:06:20;21.60;79.20
64705;DHT22;51131;52.298;13.686;2023-06-26T01:08:47;21.80;79.60
64705;DHT22;51131;52.298;13.686;2023-06-26T01:11:14;21.70;79.40
64705;DHT22;51131;52.298;13.686;2023-06-26T01:13:41;21.60;79.20
64705;DHT22;51131;52.298;13.686;2023-06-26T01:16:08;21.60;79.20
64705;DHT22;51131;52.298;13.686;2023-06-26T01:18:35;21.60;79.10
64705;DHT22;51131;52.298;13.686;2023-06-26T01:21:04;21.70;79.40
64705;DHT22;51131;52.298;13.686;2023-06-26T01:23:39;21.60;79.30
64705;DHT22;51131;52.298;13.686;2023-06-26T01:26:15;21.60;79.30
64705;DHT22;51131;52.298;13.686;2023-06-26T01:28:43;21.50;79.20
64705;DHT22;51131;52.298;13.686;2023-06-26T01:31:10;21.50;79.00
64705;DHT22;51131;52.298;13.686;2023-06-26T01:33:37;21.70;79.30
64705;DHT22;51131;52.298;13.686;2023-06-26T01:36:04;21.50;79.20
64705;DHT22;51131;52.298;13.686;2023-06-26T01:38:31;21.50;79.10
64705;DHT22;51131;52.298;13.686;2023-06-26T01:40:58;21.50;79.20
64705;DHT22;51131;52.298;13.686;2023-06-26T01:43:27;21.70;79.30
64705;DHT22;51131;52.298;13.686;2023-06-26T01:45:59;21.70;79.50
64705;DHT22;51131;52.298;13.686;2023-06-26T01:48:28;21.50;79.30
64705;DHT22;51131;52.298;13.686;2023-06-26T01:50:57;22.00;79.60
64705;DHT22;51131;52.298;13.686;2023-06-26T01:53:25;21.60;79.50
64705;DHT22;51131;52.298;13.686;2023-06-26T01:55:55;21.50;79.10
64705;DHT22;51131;52.298;13.686;2023-06-26T01:58:26;21.50;79.00
64705;DHT22;51131;52.298;13.686;2023-06-26T02:00:53;21.50;79.20
64705;DHT22;51131;52.298;13.686;2023-06-26T02:03:20;21.80;79.60
64705;DHT22;51131;52.298;13.686;2023-06-26T02:05:47;21.50;79.40
64705;DHT22;51131;52.298;13.686;2023-06-26T02:08:14;21.50;79.20
64705;DHT22;51131;52.298;13.686;2023-06-26T02:10:41;21.60;79.10
64705;DHT22;51131;52.298;13.686;2023-06-26T02:13:08;21.50;79.00
64705;DHT22;51131;52.298;13.686;2023-06-26T02:15:35;21.70;79.60
64705;DHT22;51131;52.298;13.686;2023-06-26T02:18:01;22.00;79.90
64705;DHT22;51131;52.298;13.686;2023-06-26T02:20:28;21.50;79.40
64705;DHT22;51131;52.298;13.686;2023-06-26T02:22:54;21.50;79.50
64705;DHT22;51131;52.298;13.686;2023-06-26T02:25:21;21.50;79.60
64705;DHT22;51131;52.298;13.686;2023-06-26T02:27:48;21.50;79.50
64705;DHT22;51131;52.298;13.686;2023-06-26T03:08:39;21.40;79.20
64705;DHT22;51131;52.298;13.686;2023-06-26T03:11:06;21.40;79.00
64705;DHT22;51131;52.298;13.686;2023-06-26T03:13:34;21.40;79.00
64705;DHT22;51131;52.298;13.686;2023-06-26T03:16:01;21.50;79.40
64705;DHT22;51131;52.298;13.686;2023-06-26T03:18:28;21.60;79.70
64705;DHT22;51131;52.298;13.686;2023-06-26T03:20:55;21.60;79.50
64705;DHT22;51131;52.298;13.686;2023-06-26T03:23:22;21.40;79.30
64705;DHT22;51131;52.298;13.686;2023-06-26T03:25:49;21.40;79.20
64705;DHT22;51131;52.298;13.686;2023-06-26T03:28:16;21.40;79.10
64705;DHT22;51131;52.298;13.686;2023-06-26T03:30:42;21.40;79.40
64705;DHT22;51131;52.298;13.686;2023-06-26T03:33:09;21.40;79.40
64705;DHT22;51131;52.298;13.686;2023-06-26T03:35:36;21.70;79.50
64705;DHT22;51131;52.298;13.686;2023-06-26T03:38:03;21.40;79.30
64705;DHT22;51131;52.298;13.686;2023-06-26T03:40:30;21.40;79.50
64705;DHT22;51131;52.298;13.686;2023-06-26T03:42:57;21.40;79.30
64705;DHT22;51131;52.298;13.686;2023-06-26T03:45:24;21.40;79.30
64705;DHT22;51131;52.298;13.686;2023-06-26T03:47:50;21.40;79.20
64705;DHT22;51131;52.298;13.686;2023-06-26T03:50:17;21.50;79.40
64705;DHT22;51131;52.298;13.686;2023-06-26T03:52:44;21.40;79.20
64705;DHT22;51131;52.298;13.686;2023-06-26T03:55:10;21.70;79.60
64705;DHT22;51131;52.298;13.686;2023-06-26T03:57:37;21.60;79.50
64705;DHT22;51131;52.298;13.686;2023-06-26T04:00:04;21.40;79.20
64705;DHT22;51131;52.298;13.686;2023-06-26T04:02:34;21.40;79.30
64705;DHT22;51131;52.298;13.686;2023-06-26T04:05:01;21.40;80.10
64705;DHT22;51131;52.298;13.686;2023-06-26T04:07:29;21.40;79.70
64705;DHT22;51131;52.298;13.686;2023-06-26T04:09:57;21.50;79.90
64705;DHT22;51131;52.298;13.686;2023-06-26T04:12:23;21.30;79.70
64705;DHT22;51131;52.298;13.686;2023-06-26T04:14:50;21.50;79.90
64705;DHT22;51131;52.298;13.686;2023-06-26T04:17:17;21.30;79.80
64705;DHT22;51131;52.298;13.686;2023-06-26T04:19:43;21.40;79.90
64705;DHT22;51131;52.298;13.686;2023-06-26T04:22:10;21.50;80.10
64705;DHT22;51131;52.298;13.686;2023-06-26T04:24:37;21.40;80.10
64705;DHT22;51131;52.298;13.686;2023-06-26T04:27:04;21.60;80.30
64705;DHT22;51131;52.298;13.686;2023-06-26T04:29:32;21.30;80.00
64705;DHT22;51131;52.298;13.686;2023-06-26T04:31:58;21.30;80.10
64705;DHT22;51131;52.298;13.686;2023-06-26T04:34:26;21.40;80.30
64705;DHT22;51131;52.298;13.686;2023-06-26T04:36:53;21.40;80.30
64705;DHT22;51131;52.298;13.686;2023-06-26T04:39:19;21.30;81.10
64705;DHT22;51131;52.298;13.686;2023-06-26T04:41:46;21.30;80.30
64705;DHT22;51131;52.298;13.686;2023-06-26T04:44:13;21.30;80.30
64705;DHT22;51131;52.298;13.686;2023-06-26T04:46:40;21.30;80.30
64705;DHT22;51131;52.298;13.686;2023-06-26T04:49:10;21.30;80.30
64705;DHT22;51131;52.298;13.686;2023-06-26T04:51:37;21.30;80.40
64705;DHT22;51131;52.298;13.686;2023-06-26T04:54:10;21.30;80.40
64705;DHT22;51131;52.298;13.686;2023-06-26T04:56:37;21.30;80.50
64705;DHT22;51131;52.298;13.686;2023-06-26T04:59:03;21.30;80.50
64705;DHT22;51131;52.298;13.686;2023-06-26T05:01:30;21.50;80.30
64705;DHT22;51131;52.298;13.686;2023-06-26T05:03:58;21.30;80.50
64705;DHT22;51131;52.298;13.686;2023-06-26T05:06:25;21.30;80.50
64705;DHT22;51131;52.298;13.686;2023-06-26T05:08:52;21.30;80.60
64705;DHT22;51131;52.298;13.686;2023-06-26T05:11:19;21.30;80.80
64705;DHT22;51131;52.298;13.686;2023-06-26T05:13:45;21.40;81.00
64705;DHT22;51131;52.298;13.686;2023-06-26T05:16:12;21.30;80.90
64705;DHT22;51131;52.298;13.686;2023-06-26T05:18:38;21.30;81.00
64705;DHT22;51131;52.298;13.686;2023-06-26T05:21:06;21.30;80.80
64705;DHT22;51131;52.298;13.686;2023-06-26T05:23:33;21.30;80.80
64705;DHT22;51131;52.298;13.686;2023-06-26T05:26:01;21.30;80.80
64705;DHT22;51131;52.298;13.686;2023-06-26T05:28:29;21.30;81.00
64705;DHT22;51131;52.298;13.686;2023-06-26T05:30:57;21.30;81.30
64705;DHT22;51131;52.298;13.686;2023-06-26T05:33:25;21.30;81.30
64705;DHT22;51131;52.298;13.686;2023-06-26T05:35:52;21.30;81.20
64705;DHT22;51131;52.298;13.686;2023-06-26T05:38:19;21.20;81.40
64705;DHT22;51131;52.298;13.686;2023-06-26T05:40:46;21.20;81.50
64705;DHT22;51131;52.298;13.686;2023-06-26T05:43:13;21.20;81.80
64705;DHT22;51131;52.298;13.686;2023-06-26T05:45:40;21.20;82.00
64705;DHT22;51131;52.298;13.686;2023-06-26T05:48:06;21.20;82.10
64705;DHT22;51131;52.298;13.686;2023-06-26T05:50:34;21.50;82.40
64705;DHT22;51131;52.298;13.686;2023-06-26T05:53:01;21.20;82.20
64705;DHT22;51131;52.298;13.686;2023-06-26T05:55:29;21.20;82.10
64705;DHT22;51131;52.298;13.686;2023-06-26T05:57:57;21.20;82.10
64705;DHT22;51131;52.298;13.686;2023-06-26T06:00:24;21.20;82.30
64705;DHT22;51131;52.298;13.686;2023-06-26T06:02:52;21.20;82.30
64705;DHT22;51131;52.298;13.686;2023-06-26T06:05:21;21.20;82.00
64705;DHT22;51131;52.298;13.686;2023-06-26T06:07:48;21.20;82.20
64705;DHT22;51131;52.298;13.686;2023-06-26T06:10:14;21.20;82.00
64705;DHT22;51131;52.298;13.686;2023-06-26T06:12:41;21.20;81.70
64705;DHT22;51131;52.298;13.686;2023-06-26T06:15:08;21.20;81.40
64705;DHT22;51131;52.298;13.686;2023-06-26T06:17:35;21.20;81.10
64705;DHT22;51131;52.298;13.686;2023-06-26T06:20:02;21.30;81.20
64705;DHT22;51131;52.298;13.686;2023-06-26T06:22:29;21.20;81.10
64705;DHT22;51131;52.298;13.686;2023-06-26T06:24:56;21.50;81.30
64705;DHT22;51131;52.298;13.686;2023-06-26T06:27:22;21.20;80.70
64705;DHT22;51131;52.298;13.686;2023-06-26T06:29:49;21.30;80.70
64705;DHT22;51131;52.298;13.686;2023-06-26T06:32:16;21.30;80.70
64705;DHT22;51131;52.298;13.686;2023-06-26T06:34:42;21.20;80.30
64705;DHT22;51131;52.298;13.686;2023-06-26T06:37:09;21.10;80.20
64705;DHT22;51131;52.298;13.686;2023-06-26T06:39:36;21.20;80.30
64705;DHT22;51131;52.298;13.686;2023-06-26T06:42:02;21.20;80.70
64705;DHT22;51131;52.298;13.686;2023-06-26T06:44:29;21.20;81.20
64705;DHT22;51131;52.298;13.686;2023-06-26T06:46:57;21.20;80.50
64705;DHT22;51131;52.298;13.686;2023-06-26T06:49:24;21.20;80.40
64705;DHT22;51131;52.298;13.686;2023-06-26T06:51:51;21.20;80.50
64705;DHT22;51131;52.298;13.686;2023-06-26T06:54:17;21.40;80.70
64705;DHT22;51131;52.298;13.686;2023-06-26T06:56:44;21.20;80.30
64705;DHT22;51131;52.298;13.686;2023-06-26T06:59:11;21.20;80.30
64705;DHT22;51131;52.298;13.686;2023-06-26T07:01:38;21.30;80.60
64705;DHT22;51131;52.298;13.686;2023-06-26T07:04:05;21.30;80.40
64705;DHT22;51131;52.298;13.686;2023-06-26T07:06:32;21.20;80.20
64705;DHT22;51131;52.298;13.686;2023-06-26T07:08:59;21.50;80.50
64705;DHT22;51131;52.298;13.686;2023-06-26T07:11:25;21.60;80.80
64705;DHT22;51131;52.298;13.686;2023-06-26T07:13:52;21.90;81.10
64705;DHT22;51131;52.298;13.686;2023-06-26T07:16:19;21.20;80.40
64705;DHT22;51131;52.298;13.686;2023-06-26T07:18:45;21.20;80.30
64705;DHT22;51131;52.298;13.686;2023-06-26T07:21:12;21.20;80.40
64705;DHT22;51131;52.298;13.686;2023-06-26T07:23:39;21.20;80.30
64705;DHT22;51131;52.298;13.686;2023-06-26T07:26:05;21.20;80.20
64705;DHT22;51131;52.298;13.686;2023-06-26T07:28:32;21.20;80.30
64705;DHT22;51131;52.298;13.686;2023-06-26T07:30:59;21.20;80.30
64705;DHT22;51131;52.298;13.686;2023-06-26T07:33:25;21.20;80.30
64705;DHT22;51131;52.298;13.686;2023-06-26T07:35:52;21.30;80.50
64705;DHT22;51131;52.298;13.686;2023-06-26T07:38:18;21.20;80.30
64705;DHT22;51131;52.298;13.686;2023-06-26T07:40:45;21.20;80.30
64705;DHT22;51131;52.298;13.686;2023-06-26T07:43:12;21.20;80.30
64705;DHT22;51131;52.298;13.686;2023-06-26T07:45:38;21.20;80.30
64705;DHT22;51131;52.298;13.686;2023-06-26T07:48:05;21.60;80.50
64705;DHT22;51131;52.298;13.686;2023-06-26T07:50:32;21.20;80.20
64705;DHT22;51131;52.298;13.686;2023-06-26T07:52:59;21.40;80.40
64705;DHT22;51131;52.298;13.686;2023-06-26T07:55:25;21.60;80.50
64705;DHT22;51131;52.298;13.686;2023-06-26T07:57:53;21.60;80.70
64705;DHT22;51131;52.298;13.686;2023-06-26T08:00:22;21.40;80.40
64705;DHT22;51131;52.298;13.686;2023-06-26T08:02:48;21.30;80.40
64705;DHT22;51131;52.298;13.686;2023-06-26T08:05:15;21.20;80.30
64705;DHT22;51131;52.298;13.686;2023-06-26T08:07:42;21.20;80.30
64705;DHT22;51131;52.298;13.686;2023-06-26T08:10:09;21.20;80.00
64705;DHT22;51131;52.298;13.686;2023-06-26T08:12:36;21.20;79.90
64705;DHT22;51131;52.298;13.686;2023-06-26T08:15:06;21.20;80.00
64705;DHT22;51131;52.298;13.686;2023-06-26T08:17:34;21.30;80.00
64705;DHT22;51131;52.298;13.686;2023-06-26T08:20:00;21.50;80.30
64705;DHT22;51131;52.298;13.686;2023-06-26T08:22:27;21.30;80.30
64705;DHT22;51131;52.298;13.686;2023-06-26T08:24:54;21.30;80.30
64705;DHT22;51131;52.298;13.686;2023-06-26T08:27:20;21.20;80.00
64705;DHT22;51131;52.298;13.686;2023-06-26T08:29:47;21.20;80.00
64705;DHT22;51131;52.298;13.686;2023-06-26T08:32:14;21.20;80.00
64705;DHT22;51131;52.298;13.686;2023-06-26T08:34:40;21.20;80.10
64705;DHT22;51131;52.298;13.686;2023-06-26T08:37:07;21.20;80.00
64705;DHT22;51131;52.298;13.686;2023-06-26T08:39:35;21.50;80.30
64705;DHT22;51131;52.298;13.686;2023-06-26T08:42:02;21.20;79.90
64705;DHT22;51131;52.298;13.686;2023-06-26T08:44:29;21.20;79.90
64705;DHT22;51131;52.298;13.686;2023-06-26T08:46:56;21.20;80.10
64705;DHT22;51131;52.298;13.686;2023-06-26T08:49:25;21.30;80.20
64705;DHT22;51131;52.298;13.686;2023-06-26T08:52:10;21.20;80.00
64705;DHT22;51131;52.298;13.686;2023-06-26T08:54:41;21.20;79.90
64705;DHT22;51131;52.298;13.686;2023-06-26T08:57:09;21.40;80.30
64705;DHT22;51131;52.298;13.686;2023-06-26T08:59:36;21.20;80.00
64705;DHT22;51131;52.298;13.686;2023-06-26T09:02:03;21.20;80.10
64705;DHT22;51131;52.298;13.686;2023-06-26T09:04:30;21.20;80.10
64705;DHT22;51131;52.298;13.686;2023-06-26T09:06:56;21.20;80.10
64705;DHT22;51131;52.298;13.686;2023-06-26T09:09:23;21.20;80.00
64705;DHT22;51131;52.298;13.686;2023-06-26T09:11:50;21.20;80.00
64705;DHT22;51131;52.298;13.686;2023-06-26T09:14:17;21.20;80.10
64705;DHT22;51131;52.298;13.686;2023-06-26T09:16:45;21.20;80.10
64705;DHT22;51131;52.298;13.686;2023-06-26T09:19:12;21.10;80.00
64705;DHT22;51131;52.298;13.686;2023-06-26T09:21:39;21.10;79.80
64705;DHT22;51131;52.298;13.686;2023-06-26T09:24:07;21.20;79.90
64705;DHT22;51131;52.298;13.686;2023-06-26T09:26:38;21.20;80.00
64705;DHT22;51131;52.298;13.686;2023-06-26T09:29:05;21.20;79.80
64705;DHT22;51131;52.298;13.686;2023-06-26T09:31:32;21.30;80.10
64705;DHT22;51131;52.298;13.686;2023-06-26T09:34:07;21.30;80.10
64705;DHT22;51131;52.298;13.686;2023-06-26T09:36:34;21.20;80.00
64705;DHT22;51131;52.298;13.686;2023-06-26T09:39:06;21.20;79.90
64705;DHT22;51131;52.298;13.686;2023-06-26T09:41:41;21.20;79.90
64705;DHT22;51131;52.298;13.686;2023-06-26T09:44:10;21.20;80.00
64705;DHT22;51131;52.298;13.686;2023-06-26T09:46:37;21.10;79.90
64705;DHT22;51131;52.298;13.686;2023-06-26T09:49:05;21.20;79.90
64705;DHT22;51131;52.298;13.686;2023-06-26T09:51:32;21.30;79.80
64705;DHT22;51131;52.298;13.686;2023-06-26T09:53:59;21.30;79.60
64705;DHT22;51131;52.298;13.686;2023-06-26T09:56:27;21.30;79.40
64705;DHT22;51131;52.298;13.686;2023-06-26T09:58:57;21.90;79.60
64705;DHT22;51131;52.298;13.686;2023-06-26T10:01:24;21.60;78.80
64705;DHT22;51131;52.298;13.686;2023-06-26T10:03:51;21.80;78.50
64705;DHT22;51131;52.298;13.686;2023-06-26T10:06:19;21.80;79.00
64705;DHT22;51131;52.298;13.686;2023-06-26T10:08:46;22.10;77.90
64705;DHT22;51131;52.298;13.686;2023-06-26T10:11:14;21.90;77.10
64705;DHT22;51131;52.298;13.686;2023-06-26T10:13:42;22.30;77.60
64705;DHT22;51131;52.298;13.686;2023-06-26T10:16:13;21.90;77.20
64705;DHT22;51131;52.298;13.686;2023-06-26T10:18:41;22.50;77.50
64705;DHT22;51131;52.298;13.686;2023-06-26T10:21:09;22.00;76.90
64705;DHT22;51131;52.298;13.686;2023-06-26T10:23:38;22.10;77.00
64705;DHT22;51131;52.298;13.686;2023-06-26T10:26:06;22.10;77.00
64705;DHT22;51131;52.298;13.686;2023-06-26T10:28:33;22.10;77.00
64705;DHT22;51131;52.298;13.686;2023-06-26T10:31:01;22.10;77.10
64705;DHT22;51131;52.298;13.686;2023-06-26T10:33:29;22.10;77.20
64705;DHT22;51131;52.298;13.686;2023-06-26T10:36:11;22.00;77.30
64705;DHT22;51131;52.298;13.686;2023-06-26T10:39:02;22.00;77.40
64705;DHT22;51131;52.298;13.686;2023-06-26T10:41:38;22.00;77.40
64705;DHT22;51131;52.298;13.686;2023-06-26T10:44:13;22.00;77.30
64705;DHT22;51131;52.298;13.686;2023-06-26T10:46:52;22.00;77.40
64705;DHT22;51131;52.298;13.686;2023-06-26T10:49:20;22.00;77.40
64705;DHT22;51131;52.298;13.686;2023-06-26T10:51:48;22.00;77.40
64705;DHT22;51131;52.298;13.686;2023-06-26T10:54:16;22.10;77.60
64705;DHT22;51131;52.298;13.686;2023-06-26T10:56:44;22.00;77.60
64705;DHT22;51131;52.298;13.686;2023-06-26T10:59:13;22.00;77.60
64705;DHT22;51131;52.298;13.686;2023-06-26T11:01:40;22.00;77.60
64705;DHT22;51131;52.298;13.686;2023-06-26T11:04:08;22.00;77.60
64705;DHT22;51131;52.298;13.686;2023-06-26T11:06:37;22.00;77.80
64705;DHT22;51131;52.298;13.686;2023-06-26T11:09:08;22.00;77.80
64705;DHT22;51131;52.298;13.686;2023-06-26T11:14:21;22.00;77.50
64705;DHT22;51131;52.298;13.686;2023-06-26T11:16:48;22.00;77.70
64705;DHT22;51131;52.298;13.686;2023-06-26T11:19:18;22.10;77.80
64705;DHT22;51131;52.298;13.686;2023-06-26T11:21:45;21.90;77.60
64705;DHT22;51131;52.298;13.686;2023-06-26T11:24:13;21.90;77.70
64705;DHT22;51131;52.298;13.686;2023-06-26T11:26:40;22.00;77.50
64705;DHT22;51131;52.298;13.686;2023-06-26T11:29:07;21.90;77.70
64705;DHT22;51131;52.298;13.686;2023-06-26T11:31:35;22.00;77.80
64705;DHT22;51131;52.298;13.686;2023-06-26T11:34:05;21.90;77.60
64705;DHT22;51131;52.298;13.686;2023-06-26T11:36:33;22.10;77.80
64705;DHT22;51131;52.298;13.686;2023-06-26T11:39:06;21.90;77.60
64705;DHT22;51131;52.298;13.686;2023-06-26T11:41:34;21.90;77.60
64705;DHT22;51131;52.298;13.686;2023-06-26T11:44:02;21.90;77.70
64705;DHT22;51131;52.298;13.686;2023-06-26T11:46:31;22.30;78.10
64705;DHT22;51131;52.298;13.686;2023-06-26T11:48:57;21.90;77.60
64705;DHT22;51131;52.298;13.686;2023-06-26T11:51:26;21.90;77.80
64705;DHT22;51131;52.298;13.686;2023-06-26T11:53:53;22.00;77.90
64705;DHT22;51131;52.298;13.686;2023-06-26T11:56:20;22.10;77.90
64705;DHT22;51131;52.298;13.686;2023-06-26T11:59:05;21.90;77.60
64705;DHT22;51131;52.298;13.686;2023-06-26T12:01:39;21.90;77.80
64705;DHT22;51131;52.298;13.686;2023-06-26T12:04:07;21.90;77.80
64705;DHT22;51131;52.298;13.686;2023-06-26T12:06:35;21.80;77.70
64705;DHT22;51131;52.298;13.686;2023-06-26T12:09:02;21.80;77.80
64705;DHT22;51131;52.298;13.686;2023-06-26T12:11:33;21.80;78.50
64705;DHT22;51131;52.298;13.686;2023-06-26T12:14:00;21.80;77.90
64705;DHT22;51131;52.298;13.686;2023-06-26T12:16:29;21.80;77.60
64705;DHT22;51131;52.298;13.686;2023-06-26T12:18:59;21.80;77.80
64705;DHT22;51131;52.298;13.686;2023-06-26T12:24:08;21.80;78.00
64705;DHT22;51131;52.298;13.686;2023-06-26T12:26:35;21.80;77.90
64705;DHT22;51131;52.298;13.686;2023-06-26T12:29:05;21.80;78.10
64705;DHT22;51131;52.298;13.686;2023-06-26T12:31:32;21.90;78.10
64705;DHT22;51131;52.298;13.686;2023-06-26T12:34:00;21.80;78.10
64705;DHT22;51131;52.298;13.686;2023-06-26T12:36:27;21.80;78.00
64705;DHT22;51131;52.298;13.686;2023-06-26T12:38:54;21.80;78.00
64705;DHT22;51131;52.298;13.686;2023-06-26T12:41:23;21.90;78.20
64705;DHT22;51131;52.298;13.686;2023-06-26T12:43:55;21.80;78.10
64705;DHT22;51131;52.298;13.686;2023-06-26T12:46:32;21.80;78.30
64705;DHT22;51131;52.298;13.686;2023-06-26T12:48:59;21.80;78.00
64705;DHT22;51131;52.298;13.686;2023-06-26T12:51:26;22.00;78.20
64705;DHT22;51131;52.298;13.686;2023-06-26T12:53:54;21.80;77.90
64705;DHT22;51131;52.298;13.686;2023-06-26T12:56:20;21.80;77.90
64705;DHT22;51131;52.298;13.686;2023-06-26T12:58:47;21.80;78.00
64705;DHT22;51131;52.298;13.686;2023-06-26T13:01:14;21.80;78.00
64705;DHT22;51131;52.298;13.686;2023-06-26T13:03:41;21.70;77.90
64705;DHT22;51131;52.298;13.686;2023-06-26T13:06:08;21.80;78.10
64705;DHT22;51131;52.298;13.686;2023-06-26T13:08:35;22.10;78.40
64705;DHT22;51131;52.298;13.686;2023-06-26T13:11:01;21.80;78.00
64705;DHT22;51131;52.298;13.686;2023-06-26T13:13:28;21.70;78.00
64705;DHT22;51131;52.298;13.686;2023-06-26T13:15:55;21.70;78.00
64705;DHT22;51131;52.298;13.686;2023-06-26T13:18:22;21.70;78.00
64705;DHT22;51131;52.298;13.686;2023-06-26T13:20:48;21.70;78.10
64705;DHT22;51131;52.298;13.686;2023-06-26T13:23:15;21.70;78.10
64705;DHT22;51131;52.298;13.686;2023-06-26T13:25:43;21.70;78.00
64705;DHT22;51131;52.298;13.686;2023-06-26T13:28:09;21.70;78.10
64705;DHT22;51131;52.298;13.686;2023-06-26T13:30:36;21.70;78.20
64705;DHT22;51131;52.298;13.686;2023-06-26T13:33:03;21.70;78.20
64705;DHT22;51131;52.298;13.686;2023-06-26T13:35:30;22.10;78.60
64705;DHT22;51131;52.298;13.686;2023-06-26T13:37:57;21.90;78.40
64705;DHT22;51131;52.298;13.686;2023-06-26T13:40:23;21.70;78.10
64705;DHT22;51131;52.298;13.686;2023-06-26T13:42:50;21.90;78.30
64705;DHT22;51131;52.298;13.686;2023-06-26T13:45:17;21.70;78.20
64705;DHT22;51131;52.298;13.686;2023-06-26T13:47:57;21.60;77.90
64705;DHT22;51131;52.298;13.686;2023-06-26T13:50:24;21.70;78.00
64705;DHT22;51131;52.298;13.686;2023-06-26T13:52:50;21.70;78.00
64705;DHT22;51131;52.298;13.686;2023-06-26T13:55:17;21.70;77.90
64705;DHT22;51131;52.298;13.686;2023-06-26T13:57:44;21.70;78.00
64705;DHT22;51131;52.298;13.686;2023-06-26T14:00:11;21.70;78.00
64705;DHT22;51131;52.298;13.686;2023-06-26T14:02:39;21.70;78.00
64705;DHT22;51131;52.298;13.686;2023-06-26T14:05:06;21.70;78.00
64705;DHT22;51131;52.298;13.686;2023-06-26T14:07:32;21.70;77.90
64705;DHT22;51131;52.298;13.686;2023-06-26T14:09:59;21.70;78.70
64705;DHT22;51131;52.298;13.686;2023-06-26T14:12:26;21.70;78.00
64705;DHT22;51131;52.298;13.686;2023-06-26T14:14:53;21.70;78.00
64705;DHT22;51131;52.298;13.686;2023-06-26T14:17:19;21.80;78.30
64705;DHT22;51131;52.298;13.686;2023-06-26T14:19:46;21.70;78.20
64705;DHT22;51131;52.298;13.686;2023-06-26T14:22:13;21.70;78.00
64705;DHT22;51131;52.298;13.686;2023-06-26T14:24:40;21.80;78.30
64705;DHT22;51131;52.298;13.686;2023-06-26T14:27:06;21.70;78.20
64705;DHT22;51131;52.298;13.686;2023-06-26T14:29:33;21.70;78.20
64705;DHT22;51131;52.298;13.686;2023-06-26T14:32:00;21.70;78.20
64705;DHT22;51131;52.298;13.686;2023-06-26T14:34:27;21.90;78.40
64705;DHT22;51131;52.298;13.686;2023-06-26T14:36:54;22.10;78.60
64705;DHT22;51131;52.298;13.686;2023-06-26T14:39:20;21.60;78.10
64705;DHT22;51131;52.298;13.686;2023-06-26T14:41:48;21.70;78.30
64705;DHT22;51131;52.298;13.686;2023-06-26T14:44:15;21.60;78.10
64705;DHT22;51131;52.298;13.686;2023-06-26T14:46:42;21.60;78.10
64705;DHT22;51131;52.298;13.686;2023-06-26T14:49:09;21.70;78.20
64705;DHT22;51131;52.298;13.686;2023-06-26T14:51:36;21.60;78.10
64705;DHT22;51131;52.298;13.686;2023-06-26T14:54:05;21.70;78.20
64705;DHT22;51131;52.298;13.686;2023-06-26T14:56:32;22.00;78.40
64705;DHT22;51131;52.298;13.686;2023-06-26T14:58:59;21.70;78.20
64705;DHT22;51131;52.298;13.686;2023-06-26T15:01:26;21.70;78.40
64705;DHT22;51131;52.298;13.686;2023-06-26T15:03:53;21.70;78.30
64705;DHT22;51131;52.298;13.686;2023-06-26T15:06:20;21.70;78.70
64705;DHT22;51131;52.298;13.686;2023-06-26T15:08:46;21.70;78.90
64705;DHT22;51131;52.298;13.686;2023-06-26T15:11:13;21.80;79.10
64705;DHT22;51131;52.298;13.686;2023-06-26T15:13:40;21.60;79.10
64705;DHT22;51131;52.298;13.686;2023-06-26T15:16:06;21.60;79.90
64705;DHT22;51131;52.298;13.686;2023-06-26T15:18:33;21.90;81.00
64705;DHT22;51131;52.298;13.686;2023-06-26T15:21:00;21.60;80.50
64705;DHT22;51131;52.298;13.686;2023-06-26T15:23:29;21.60;80.40
64705;DHT22;51131;52.298;13.686;2023-06-26T15:25:56;21.60;80.50
64705;DHT22;51131;52.298;13.686;2023-06-26T15:28:22;21.60;80.50
64705;DHT22;51131;52.298;13.686;2023-06-26T15:30:49;21.80;81.20
64705;DHT22;51131;52.298;13.686;2023-06-26T15:33:16;21.50;81.60
64705;DHT22;51131;52.298;13.686;2023-06-26T15:35:43;21.60;81.20
64705;DHT22;51131;52.298;13.686;2023-06-26T15:38:10;21.50;81.10
64705;DHT22;51131;52.298;13.686;2023-06-26T15:40:37;21.60;81.00
64705;DHT22;51131;52.298;13.686;2023-06-26T15:43:04;21.50;80.90
64705;DHT22;51131;52.298;13.686;2023-06-26T15:45:31;21.60;80.60
64705;DHT22;51131;52.298;13.686;2023-06-26T15:47:57;21.50;80.50
64705;DHT22;51131;52.298;13.686;2023-06-26T15:50:24;21.60;80.70
64705;DHT22;51131;52.298;13.686;2023-06-26T15:52:51;21.60;80.60
64705;DHT22;51131;52.298;13.686;2023-06-26T15:55:18;21.60;80.90
64705;DHT22;51131;52.298;13.686;2023-06-26T15:57:44;21.60;81.10
64705;DHT22;51131;52.298;13.686;2023-06-26T16:00:12;21.50;81.60